Time;durP1;ratioP1;P1;durP2;ratioP2;P2;SDS_P1;SDS_P2;PMS_P1;PMS_P2;Temp;Humidity;BMP_temperature;BMP_pressure;BME280_temperature;BME280_humidity;BME280_pressure;Samples;Min_cycle;Max_cycle;Signal;HPM_P1;HPM_P2
2023/05/31 00:05:11;;;;;;;;;;;;;;;12.83;100.00;97775.00;18563700;32;20000;-54
2023/05/31 00:15:13;;;;;;;;;;;;;;;12.66;100.00;97771.84;18563032;32;19972;-53
2023/05/31 00:25:16;;;;;;;;;;;;;;;12.50;100.00;97758.38;18562218;32;20381;-51
2023/05/31 00:35:19;;;;;;;;;;;;;;;12.34;100.00;97760.37;18547516;32;19976;-54
2023/05/31 00:45:22;;;;;;;;;;;;;;;12.23;100.00;97766.13;18561023;32;19957;-52
2023/05/31 00:55:25;;;;;;;;;;;;;;;12.01;100.00;97753.75;18561067;32;19961;-52
2023/05/31 01:05:27;;;;;;;;;;;;;;;11.85;100.00;97763.78;18560581;32;20325;-49
2023/05/31 01:15:34;;;;;;;;;;;;;;;11.64;100.00;97758.44;18560526;32;19971;-53
2023/05/31 01:25:55;;;;;;;;;;;;;;;11.47;100.00;97742.50;18560313;32;19956;-53
2023/05/31 01:35:57;;;;;;;;;;;;;;;11.35;100.00;97745.50;18560194;32;20000;-52
2023/05/31 01:46:01;;;;;;;;;;;;;;;11.18;100.00;97751.22;18559775;32;19996;-52
2023/05/31 01:56:05;;;;;;;;;;;;;;;11.03;100.00;97753.91;18554561;32;20284;-52
2023/05/31 02:06:07;;;;;;;;;;;;;;;10.88;100.00;97762.03;18570713;32;19971;-53
2023/05/31 02:16:09;;;;;;;;;;;;;;;10.83;100.00;97765.53;18570474;32;19960;-53
2023/05/31 02:26:12;;;;;;;;;;;;;;;10.75;100.00;97766.88;18555073;32;19948;-53
2023/05/31 02:36:14;;;;;;;;;;;;;;;10.68;100.00;97761.72;18568891;32;20377;-50
2023/05/31 02:46:16;;;;;;;;;;;;;;;10.58;100.00;97769.84;18568496;32;19971;-48
2023/05/31 02:56:20;;;;;;;;;;;;;;;10.47;100.00;97771.69;18567944;32;20374;-54
2023/05/31 03:06:23;;;;;;;;;;;;;;;10.36;100.00;97772.75;18566689;32;20410;-52
2023/05/31 03:16:25;;;;;;;;;;;;;;;10.25;100.00;97776.47;18566461;31;20324;-53
2023/05/31 03:26:28;;;;;;;;;;;;;;;10.08;100.00;97768.56;18566110;32;20242;-53
2023/05/31 03:36:31;;;;;;;;;;;;;;;9.96;100.00;97779.59;18565424;32;20279;-55
2023/05/31 03:46:33;;;;;;;;;;;;;;;9.86;100.00;97785.75;18550488;32;19984;-55
2023/05/31 03:56:36;;;;;;;;;;;;;;;9.74;100.00;97785.94;18550266;32;20012;-56
2023/05/31 04:06:38;;;;;;;;;;;;;;;9.61;100.00;97781.84;18563260;31;19956;-56
2023/05/31 04:16:41;;;;;;;;;;;;;;;9.68;100.00;97800.50;18563005;32;19956;-55
2023/05/31 04:26:45;;;;;;;;;;;;;;;9.74;100.00;97804.84;18547501;32;19971;-54
2023/05/31 04:36:48;;;;;;;;;;;;;;;9.92;100.00;97811.72;18561846;32;19980;-56
2023/05/31 04:46:52;;;;;;;;;;;;;;;10.11;100.00;97824.78;18561654;32;19982;-56
2023/05/31 04:56:55;;;;;;;;;;;;;;;10.32;100.00;97810.28;18561055;32;19956;-53
2023/05/31 05:06:58;;;;;;;;;;;;;;;10.57;100.00;97827.69;18546582;31;20269;-56
2023/05/31 05:17:01;;;;;;;;;;;;;;;10.92;100.00;97839.69;18560575;32;20000;-53
2023/05/31 05:27:03;;;;;;;;;;;;;;;11.26;100.00;97838.34;18538125;32;20398;-55
2023/05/31 05:37:06;;;;;;;;;;;;;;;11.62;100.00;97841.88;18572498;32;19956;-56
2023/05/31 05:47:10;;;;;;;;;;;;;;;11.99;100.00;97856.19;18558285;32;19961;-55
2023/05/31 05:57:13;;;;;;;;;;;;;;;12.39;100.00;97865.28;18571257;31;20325;-54
2023/05/31 06:07:16;;;;;;;;;;;;;;;12.75;100.00;97873.28;18570624;32;19967;-56
2023/05/31 06:17:19;;;;;;;;;;;;;;;13.22;100.00;97882.78;18570693;32;19981;-56
2023/05/31 06:27:22;;;;;;;;;;;;;;;13.78;100.00;97878.00;18569850;32;20330;-56
2023/05/31 06:37:25;;;;;;;;;;;;;;;14.35;100.00;97882.87;18554077;32;19953;-54
2023/05/31 06:47:28;;;;;;;;;;;;;;;14.88;100.00;97882.81;18568391;32;20281;-56
2023/05/31 06:57:31;;;;;;;;;;;;;;;15.44;97.58;97891.25;18567995;32;20016;-53
2023/05/31 07:07:34;;;;;;;;;;;;;;;15.88;93.79;97886.47;18553390;32;19983;-55
2023/05/31 07:17:37;;;;;;;;;;;;;;;16.15;93.82;97874.81;18566552;32;19982;-57
2023/05/31 07:27:41;;;;;;;;;;;;;;;16.48;84.52;97877.44;18566126;32;20358;-55
2023/05/31 07:37:44;;;;;;;;;;;;;;;16.93;77.71;97877.62;18565185;32;19987;-57
2023/05/31 07:47:47;;;;;;;;;;;;;;;17.33;78.21;97868.81;18564505;31;20272;-54
2023/05/31 07:57:53;;;;;;;;;;;;;;;17.76;77.95;97871.06;18550030;32;20355;-54
2023/05/31 08:07:56;;;;;;;;;;;;;;;18.07;67.07;97872.22;18563893;32;19963;-53
2023/05/31 08:17:58;;;;;;;;;;;;;;;18.51;71.21;97867.72;18563177;32;19960;-54
2023/05/31 08:28:01;;;;;;;;;;;;;;;18.80;65.15;97860.88;18562765;32;19956;-54
2023/05/31 08:38:04;;;;;;;;;;;;;;;19.17;67.64;97864.19;18562222;32;20035;-53
2023/05/31 08:48:10;;;;;;;;;;;;;;;19.48;63.18;97854.97;18561531;32;20264;-52
2023/05/31 08:58:19;;;;;;;;;;;;;;;19.88;63.20;97860.25;18560720;32;19994;-54
2023/05/31 09:08:23;;;;;;;;;;;;;;;20.12;62.52;97842.44;18560920;32;19962;-54
2023/05/31 09:18:29;;;;;;;;;;;;;;;20.52;62.17;97842.09;18560732;32;19952;-53
2023/05/31 09:28:33;;;;;;;;;;;;;;;20.94;57.34;97835.87;18560398;32;19978;-51
2023/05/31 09:38:37;;;;;;;;;;;;;;;21.22;58.23;97836.13;18559374;31;20016;-53
2023/05/31 09:48:40;;;;;;;;;;;;;;;21.56;54.48;97828.75;18559980;32;19964;-52
2023/05/31 09:58:44;;;;;;;;;;;;;;;21.97;57.52;97821.50;18545011;32;19999;-53
2023/05/31 10:08:48;;;;;;;;;;;;;;;22.18;53.21;97809.59;18559110;32;19987;-54
2023/05/31 10:18:54;;;;;;;;;;;;;;;22.42;51.40;97805.25;18570034;32;20288;-54
2023/05/31 10:28:58;;;;;;;;;;;;;;;22.72;51.75;97805.84;18555534;32;20037;-55
2023/05/31 10:39:35;;;;;;;;;;;;;;;23.21;52.59;97804.91;18569160;32;19992;-53
2023/05/31 10:49:41;;;;;;;;;;;;;;;23.61;48.58;97790.25;18555414;32;19957;-55
2023/05/31 10:59:47;;;;;;;;;;;;;;;24.08;51.40;97774.09;18553725;32;19968;-54
2023/05/31 11:09:59;;;;;;;;;;;;;;;24.45;49.97;97763.53;18552998;32;19953;-55
2023/05/31 11:20:05;;;;;;;;;;;;;;;24.82;48.87;97760.44;18566744;32;20384;-55
2023/05/31 11:30:17;;;;;;;;;;;;;;;25.35;48.40;97762.72;18550808;31;19975;-54
2023/05/31 11:40:20;;;;;;;;;;;;;;;25.66;42.65;97760.09;18551549;32;19956;-55
2023/05/31 11:50:24;;;;;;;;;;;;;;;25.79;45.36;97746.88;18564796;32;19960;-55
2023/05/31 12:00:34;;;;;;;;;;;;;;;26.47;47.37;97731.34;18564172;32;19960;-55
2023/05/31 12:10:41;;;;;;;;;;;;;;;26.92;44.16;97728.00;18563421;32;19980;-56
2023/05/31 12:20:45;;;;;;;;;;;;;;;27.43;41.52;97723.84;18548767;32;19972;-55
2023/05/31 12:30:51;;;;;;;;;;;;;;;27.73;39.36;97713.41;18562234;31;20335;-55
2023/05/31 12:40:54;;;;;;;;;;;;;;;28.50;41.98;97704.44;18534347;32;20297;-55
2023/05/31 12:50:58;;;;;;;;;;;;;;;28.89;40.84;97701.09;18561386;32;19961;-55
2023/05/31 13:01:02;;;;;;;;;;;;;;;29.22;39.65;97690.84;18561295;32;19994;-55
2023/05/31 13:11:05;;;;;;;;;;;;;;;29.86;37.11;97683.00;18560881;32;20001;-52
2023/05/31 13:21:09;;;;;;;;;;;;;;;30.13;45.77;97668.63;18560628;32;19960;-55
2023/05/31 13:31:12;;;;;;;;;;;;;;;30.67;39.16;97674.09;18560247;31;19963;-54
2023/05/31 13:41:16;;;;;;;;;;;;;;;31.53;40.74;97672.84;18560092;32;20000;-55
2023/05/31 13:51:19;;;;;;;;;;;;;;;32.00;38.57;97666.88;18568518;32;19994;-56
2023/05/31 14:01:22;;;;;;;;;;;;;;;31.96;35.38;97654.94;18571586;32;19967;-54
2023/05/31 14:11:30;;;;;;;;;;;;;;;32.24;39.15;97642.72;18570496;31;19949;-54
2023/05/31 14:21:34;;;;;;;;;;;;;;;32.90;35.89;97638.72;18556629;32;20051;-53
2023/05/31 14:31:45;;;;;;;;;;;;;;;33.10;33.62;97635.25;18569461;31;19958;-53
2023/05/31 14:41:49;;;;;;;;;;;;;;;32.91;33.98;97617.13;18569186;32;19975;-51
2023/05/31 14:51:52;;;;;;;;;;;;;;;32.84;28.30;97611.62;18554217;32;20317;-50
2023/05/31 15:01:57;;;;;;;;;;;;;;;31.88;30.51;97606.69;18566995;32;19957;-54
2023/05/31 15:12:02;;;;;;;;;;;;;;;30.00;33.26;97596.56;18554174;32;19962;-55
2023/05/31 15:22:05;;;;;;;;;;;;;;;29.14;33.73;97597.34;18552525;32;19961;-54
2023/05/31 15:32:09;;;;;;;;;;;;;;;28.46;33.69;97594.38;18565736;31;19965;-52
2023/05/31 15:42:12;;;;;;;;;;;;;;;27.68;36.13;97596.28;18551234;32;19968;-53
2023/05/31 15:52:15;;;;;;;;;;;;;;;27.41;35.89;97610.38;18564957;32;20000;-49
2023/05/31 16:02:19;;;;;;;;;;;;;;;26.89;35.84;97596.38;18564316;31;19948;-54
2023/05/31 16:12:23;;;;;;;;;;;;;;;26.53;38.27;97595.94;18549256;32;19996;-52
2023/05/31 16:22:27;;;;;;;;;;;;;;;26.10;39.07;97590.66;18563283;32;19991;-52
2023/05/31 16:32:29;;;;;;;;;;;;;;;25.90;38.14;97591.94;18562341;32;20016;-50
2023/05/31 16:42:33;;;;;;;;;;;;;;;25.85;37.59;97585.53;18562028;32;19991;-49
2023/05/31 16:52:37;;;;;;;;;;;;;;;26.29;35.05;97586.94;18547901;32;19984;-50
2023/05/31 17:02:42;;;;;;;;;;;;;;;25.76;35.80;97586.97;18546824;32;20008;-49
2023/05/31 17:12:46;;;;;;;;;;;;;;;25.26;40.54;97589.75;18560964;32;19960;-50
2023/05/31 17:22:51;;;;;;;;;;;;;;;24.91;38.12;97599.78;18565327;32;20002;-50
2023/05/31 17:32:55;;;;;;;;;;;;;;;24.90;37.57;97606.50;18573024;31;19969;-52
2023/05/31 17:42:59;;;;;;;;;;;;;;;24.48;36.58;97613.56;18572938;32;19988;-53
2023/05/31 17:53:03;;;;;;;;;;;;;;;24.17;38.08;97615.31;18557669;32;20324;-51
2023/05/31 18:03:06;;;;;;;;;;;;;;;23.73;37.71;97618.22;18557032;32;20009;-48
2023/05/31 18:13:09;;;;;;;;;;;;;;;27.05;33.18;97654.41;18556545;32;19967;-51
2023/05/31 18:23:13;;;;;;;;;;;;;;;25.34;33.64;97649.59;18570094;32;19956;-47
2023/05/31 18:33:16;;;;;;;;;;;;;;;23.79;37.80;97657.38;18569685;31;20059;-49
2023/05/31 18:43:20;;;;;;;;;;;;;;;23.08;38.19;97662.66;18568743;31;19960;-49
2023/05/31 18:53:24;;;;;;;;;;;;;;;22.60;40.13;97660.59;18568924;32;20406;-47
2023/05/31 19:03:27;;;;;;;;;;;;;;;22.12;39.91;97659.53;18553892;32;19995;-48
2023/05/31 19:13:31;;;;;;;;;;;;;;;21.53;45.96;97666.28;18567223;32;20043;-47
2023/05/31 19:23:34;;;;;;;;;;;;;;;20.79;51.57;97670.44;18567005;32;19953;-50
2023/05/31 19:33:37;;;;;;;;;;;;;;;20.04;59.62;97679.38;18565701;31;20349;-48
2023/05/31 19:43:41;;;;;;;;;;;;;;;19.38;62.77;97679.84;18551078;32;19945;-51
2023/05/31 19:53:44;;;;;;;;;;;;;;;18.87;68.35;97691.37;18564827;32;19948;-49
2023/05/31 20:03:47;;;;;;;;;;;;;;;18.43;71.53;97696.84;18564084;32;19972;-48
2023/05/31 20:13:50;;;;;;;;;;;;;;;17.99;78.46;97700.63;18563611;32;19987;-49
2023/05/31 20:23:53;;;;;;;;;;;;;;;17.60;82.69;97712.03;18548700;32;20016;-51
2023/05/31 20:33:56;;;;;;;;;;;;;;;17.22;89.38;97709.75;18562198;31;19996;-48
2023/05/31 20:44:00;;;;;;;;;;;;;;;16.85;95.64;97717.19;18562189;32;19995;-48
2023/05/31 20:54:03;;;;;;;;;;;;;;;16.49;100.00;97722.72;18561118;32;19988;-48
2023/05/31 21:04:06;;;;;;;;;;;;;;;16.15;100.00;97721.25;18561168;32;20007;-48
2023/05/31 21:14:10;;;;;;;;;;;;;;;15.76;100.00;97718.72;18560923;32;20340;-48
2023/05/31 21:24:12;;;;;;;;;;;;;;;15.38;100.00;97720.81;18560618;32;20298;-48
2023/05/31 21:34:15;;;;;;;;;;;;;;;15.08;100.00;97723.75;18545765;32;20342;-47
2023/05/31 21:44:17;;;;;;;;;;;;;;;14.83;100.00;97733.16;18559889;32;19952;-49
2023/05/31 21:54:20;;;;;;;;;;;;;;;14.61;100.00;97743.78;18545820;32;19952;-49
2023/05/31 22:04:23;;;;;;;;;;;;;;;14.38;100.00;97749.00;18559517;32;20053;-49
2023/05/31 22:14:28;;;;;;;;;;;;;;;14.18;100.00;97759.06;18555986;32;19992;-47
2023/05/31 22:24:30;;;;;;;;;;;;;;;14.00;100.00;97767.97;18570197;31;19953;-50
2023/05/31 22:34:33;;;;;;;;;;;;;;;13.86;100.00;97771.38;18555077;32;19959;-47
2023/05/31 22:44:35;;;;;;;;;;;;;;;13.69;100.00;97771.03;18569303;32;20352;-48
2023/05/31 22:54:38;;;;;;;;;;;;;;;13.57;100.00;97779.59;18554109;32;19956;-48
2023/05/31 23:04:40;;;;;;;;;;;;;;;13.42;100.00;97775.09;18567829;32;19957;-49
2023/05/31 23:14:44;;;;;;;;;;;;;;;13.29;100.00;97770.28;18567436;32;19953;-47
2023/05/31 23:24:47;;;;;;;;;;;;;;;13.15;100.00;97768.22;18566381;32;20028;-50
2023/05/31 23:34:49;;;;;;;;;;;;;;;13.03;100.00;97770.50;18551820;32;19961;-51
2023/05/31 23:44:52;;;;;;;;;;;;;;;12.83;100.00;97772.28;18565432;32;19971;-52
2023/05/31 23:54:54;;;;;;;;;;;;;;;12.70;100.00;97768.31;18564989;32;19967;-50
